createdAt,value
2023-05-11T00:02:01.606Z,12.10
2023-05-11T00:04:28.780Z,12.10
2023-05-11T00:06:56.566Z,12.10
2023-05-11T00:09:23.633Z,12.10
2023-05-11T00:11:53.075Z,12.10
2023-05-11T00:14:20.525Z,12.00
2023-05-11T00:16:47.606Z,12.00
2023-05-11T00:19:14.620Z,12.00
2023-05-11T00:21:41.733Z,12.00
2023-05-11T00:24:09.082Z,11.90
2023-05-11T00:26:36.123Z,11.90
2023-05-11T00:29:03.215Z,11.80
2023-05-11T00:31:30.631Z,11.80
2023-05-11T00:33:57.790Z,11.80
2023-05-11T00:36:24.956Z,11.70
2023-05-11T00:38:52.976Z,11.70
2023-05-11T00:41:20.017Z,11.70
2023-05-11T00:43:47.155Z,11.70
2023-05-11T00:46:14.308Z,11.60
2023-05-11T00:48:41.467Z,11.60
2023-05-11T00:51:08.779Z,11.50
2023-05-11T00:53:35.909Z,11.50
2023-05-11T00:56:04.364Z,11.50
2023-05-11T00:58:32.496Z,11.50
2023-05-11T01:00:59.474Z,11.40
2023-05-11T01:03:26.777Z,11.40
2023-05-11T01:06:44.819Z,11.40
2023-05-11T01:09:40.692Z,11.40
2023-05-11T01:12:22.676Z,11.40
2023-05-11T01:15:21.866Z,11.30
2023-05-11T01:18:07.300Z,11.30
2023-05-11T01:20:35.014Z,11.30
2023-05-11T01:23:08.174Z,11.20
2023-05-11T01:25:41.154Z,11.20
2023-05-11T01:28:33.676Z,11.20
2023-05-11T01:31:10.232Z,11.20
2023-05-11T01:33:43.884Z,11.10
2023-05-11T01:36:12.836Z,11.10
2023-05-11T01:38:44.395Z,11.00
2023-05-11T01:41:18.411Z,10.90
2023-05-11T01:43:53.632Z,10.90
2023-05-11T01:46:25.227Z,10.90
2023-05-11T01:48:54.920Z,10.80
2023-05-11T01:51:24.000Z,10.80
2023-05-11T01:53:51.634Z,10.70
2023-05-11T01:56:21.943Z,10.70
2023-05-11T01:58:51.130Z,10.60
2023-05-11T02:01:19.542Z,10.60
2023-05-11T02:03:48.377Z,10.60
2023-05-11T02:06:18.120Z,10.60
2023-05-11T02:08:46.915Z,10.60
2023-05-11T02:11:15.708Z,10.50
2023-05-11T02:13:45.923Z,10.50
2023-05-11T02:16:14.946Z,10.50
2023-05-11T02:18:43.200Z,10.50
2023-05-11T02:21:11.067Z,10.40
2023-05-11T02:23:39.251Z,10.50
2023-05-11T02:26:08.536Z,10.40
2023-05-11T02:28:36.249Z,10.40
2023-05-11T02:31:08.184Z,10.40
2023-05-11T02:33:37.909Z,10.40
2023-05-11T02:36:06.754Z,10.40
2023-05-11T02:38:35.480Z,10.30
2023-05-11T02:41:11.853Z,10.30
2023-05-11T02:43:44.517Z,10.30
2023-05-11T02:46:17.658Z,10.30
2023-05-11T02:48:49.809Z,10.20
2023-05-11T02:51:18.763Z,10.10
2023-05-11T02:53:46.933Z,10.10
2023-05-11T02:56:14.294Z,10.20
2023-05-11T02:58:41.388Z,10.10
2023-05-11T03:01:08.599Z,10.10
2023-05-11T03:03:35.690Z,10.10
2023-05-11T03:06:02.604Z,10.10
2023-05-11T03:08:29.548Z,10.10
2023-05-11T03:10:58.921Z,10.00
2023-05-11T03:13:27.152Z,10.10
2023-05-11T03:15:55.460Z,10.10
2023-05-11T03:18:23.531Z,10.10
2023-05-11T03:20:51.333Z,10.10
2023-05-11T03:23:21.522Z,10.10
2023-05-11T03:25:48.970Z,10.10
2023-05-11T03:28:17.603Z,10.00
2023-05-11T03:30:46.142Z,10.00
2023-05-11T03:33:13.115Z,10.00
2023-05-11T03:35:42.173Z,10.00
2023-05-11T03:38:11.908Z,10.00
2023-05-11T03:40:42.016Z,10.00
2023-05-11T03:43:16.615Z,10.00
2023-05-11T03:45:44.911Z,10.00
2023-05-11T03:48:14.394Z,10.00
2023-05-11T03:50:41.689Z,10.00
2023-05-11T03:53:09.041Z,10.10
2023-05-11T03:55:36.039Z,10.10
2023-05-11T03:58:09.226Z,10.20
2023-05-11T04:00:42.672Z,10.10
2023-05-11T04:03:10.432Z,10.10
2023-05-11T04:05:37.486Z,10.10
2023-05-11T04:08:05.038Z,10.20
2023-05-11T04:10:31.950Z,10.20
2023-05-11T04:12:58.968Z,10.20
2023-05-11T04:15:25.909Z,10.20
2023-05-11T04:17:52.841Z,10.20
2023-05-11T04:20:19.950Z,10.30
2023-05-11T04:22:46.979Z,10.30
2023-05-11T04:25:14.758Z,10.30
2023-05-11T04:27:41.648Z,10.40
2023-05-11T04:30:09.549Z,10.40
2023-05-11T04:32:36.669Z,10.50
2023-05-11T04:35:04.055Z,10.50
2023-05-11T04:37:31.082Z,10.60
2023-05-11T04:39:58.378Z,10.60
2023-05-11T04:42:25.260Z,10.70
2023-05-11T04:44:55.376Z,10.70
2023-05-11T04:47:22.263Z,10.80
2023-05-11T04:49:49.237Z,10.80
2023-05-11T04:52:16.398Z,10.90
2023-05-11T04:54:43.402Z,10.90
2023-05-11T04:57:10.432Z,10.90
2023-05-11T04:59:37.575Z,11.00
2023-05-11T05:02:04.717Z,11.10
2023-05-11T05:04:32.976Z,11.10
2023-05-11T05:07:01.769Z,11.20
2023-05-11T05:09:28.661Z,11.20
2023-05-11T05:11:55.598Z,11.30
2023-05-11T05:14:22.485Z,11.30
2023-05-11T05:16:49.451Z,11.30
2023-05-11T05:19:16.474Z,11.40
2023-05-11T05:21:43.581Z,11.50
2023-05-11T05:24:12.229Z,11.60
2023-05-11T05:26:39.162Z,11.60
2023-05-11T05:29:07.083Z,11.70
2023-05-11T05:31:34.105Z,11.80
2023-05-11T05:34:01.116Z,11.80
2023-05-11T05:36:27.998Z,11.90
2023-05-11T05:38:54.909Z,12.00
2023-05-11T05:41:23.198Z,12.00
2023-05-11T05:43:50.265Z,12.10
2023-05-11T05:46:17.491Z,12.20
2023-05-11T05:48:44.418Z,12.20
2023-05-11T05:51:11.406Z,12.30
2023-05-11T05:53:38.290Z,12.40
2023-05-11T05:56:05.704Z,12.40
2023-05-11T05:58:32.610Z,12.50
2023-05-11T06:01:00.254Z,12.60
2023-05-11T06:03:29.200Z,12.60
2023-05-11T06:05:56.719Z,12.70
2023-05-11T06:08:23.863Z,12.70
2023-05-11T06:10:50.745Z,12.80
2023-05-11T06:13:17.903Z,12.90
2023-05-11T06:15:44.876Z,12.90
2023-05-11T06:18:11.909Z,13.00
2023-05-11T06:20:39.013Z,13.00
2023-05-11T06:23:06.115Z,13.10
2023-05-11T06:25:36.324Z,13.10
2023-05-11T06:28:03.362Z,13.20
2023-05-11T06:30:31.434Z,13.20
2023-05-11T06:32:58.416Z,13.20
2023-05-11T06:35:25.553Z,13.20
2023-05-11T06:37:52.500Z,13.20
2023-05-11T06:40:19.680Z,13.30
2023-05-11T06:42:46.889Z,13.40
2023-05-11T06:45:13.966Z,13.50
2023-05-11T06:47:40.970Z,13.60
2023-05-11T06:50:08.216Z,13.70
2023-05-11T06:52:36.085Z,13.80
2023-05-11T06:55:03.016Z,13.90
2023-05-11T06:57:30.027Z,14.00
2023-05-11T06:59:57.006Z,14.10
2023-05-11T07:02:23.842Z,14.20
2023-05-11T07:04:50.875Z,14.30
2023-05-11T07:07:17.822Z,14.40
2023-05-11T07:09:44.711Z,14.60
2023-05-11T07:12:11.803Z,14.70
2023-05-11T07:14:38.795Z,14.60
2023-05-11T07:17:05.825Z,14.60
2023-05-11T07:19:33.037Z,14.70
2023-05-11T07:22:01.061Z,14.80
2023-05-11T07:24:28.130Z,14.80
2023-05-11T07:26:55.848Z,15.00
2023-05-11T07:29:22.778Z,15.10
2023-05-11T07:31:49.696Z,15.30
2023-05-11T07:34:16.712Z,15.40
2023-05-11T07:36:43.796Z,15.40
2023-05-11T07:39:10.991Z,15.40
2023-05-11T07:41:38.038Z,15.40
2023-05-11T07:44:05.755Z,15.40
2023-05-11T07:46:32.700Z,15.40
2023-05-11T07:49:14.013Z,15.50
2023-05-11T07:51:42.630Z,15.70
2023-05-11T07:54:09.690Z,15.90
2023-05-11T07:56:36.660Z,15.90
2023-05-11T07:59:03.514Z,15.80
2023-05-11T08:01:30.457Z,15.80
2023-05-11T08:03:57.369Z,15.80
2023-05-11T08:06:24.571Z,15.90
2023-05-11T08:08:51.540Z,16.00
2023-05-11T08:11:18.480Z,16.10
2023-05-11T08:13:45.463Z,16.20
2023-05-11T08:16:12.467Z,14.50
2023-05-11T08:18:39.610Z,16.40
2023-05-11T08:21:07.709Z,16.60
2023-05-11T08:23:34.668Z,16.60
2023-05-11T08:26:01.537Z,16.80
2023-05-11T08:28:28.374Z,16.90
2023-05-11T08:30:59.209Z,17.00
2023-05-11T08:33:37.496Z,17.10
2023-05-11T08:36:06.644Z,17.10
2023-05-11T08:38:35.088Z,17.10
2023-05-11T08:41:03.013Z,17.10
2023-05-11T08:43:30.203Z,17.10
2023-05-11T08:46:04.397Z,17.20
2023-05-11T08:48:31.999Z,17.30
2023-05-11T08:50:59.873Z,17.40
2023-05-11T08:53:27.013Z,17.40
2023-05-11T08:55:57.954Z,17.50
2023-05-11T08:58:25.322Z,17.60
2023-05-11T09:00:52.361Z,17.70
2023-05-11T09:03:20.121Z,17.70
2023-05-11T09:05:47.506Z,17.90
2023-05-11T09:08:15.867Z,17.90
2023-05-11T09:10:43.658Z,18.00
2023-05-11T09:13:11.045Z,18.00
2023-05-11T09:15:38.448Z,18.10
2023-05-11T09:18:05.837Z,18.20
2023-05-11T09:20:33.788Z,18.40
2023-05-11T09:23:01.366Z,18.40
2023-05-11T09:25:33.307Z,18.40
2023-05-11T09:28:00.911Z,18.50
2023-05-11T09:30:28.374Z,18.60
2023-05-11T09:32:59.759Z,18.50
2023-05-11T09:35:29.099Z,18.40
2023-05-11T09:38:10.979Z,18.30
2023-05-11T09:40:58.223Z,18.20
2023-05-11T09:43:27.293Z,18.10
2023-05-11T09:46:01.728Z,18.10
2023-05-11T09:48:31.626Z,18.30
2023-05-11T09:51:06.798Z,18.40
2023-05-11T09:53:37.798Z,18.40
2023-05-11T09:56:05.021Z,18.50
2023-05-11T09:58:57.569Z,18.50
2023-05-11T10:01:34.959Z,18.70
2023-05-11T10:04:21.323Z,18.70
2023-05-11T10:06:50.386Z,18.70
2023-05-11T10:09:18.770Z,18.60
2023-05-11T10:11:46.786Z,18.70
2023-05-11T10:14:14.581Z,18.80
2023-05-11T10:16:43.285Z,18.80
2023-05-11T10:19:11.463Z,18.90
2023-05-11T10:21:38.838Z,19.00
2023-05-11T10:24:06.706Z,19.10
2023-05-11T10:26:33.699Z,19.10
2023-05-11T10:29:01.567Z,19.10
2023-05-11T10:31:29.967Z,19.30
2023-05-11T10:33:57.650Z,19.30
2023-05-11T10:36:26.235Z,19.30
2023-05-11T10:38:54.021Z,19.30
2023-05-11T10:41:39.685Z,19.40
2023-05-11T10:44:33.154Z,19.30
2023-05-11T10:47:22.180Z,19.30
2023-05-11T10:50:22.050Z,19.30
2023-05-11T10:53:13.444Z,19.50
2023-05-11T10:55:44.166Z,19.70
2023-05-11T10:58:27.989Z,19.90
2023-05-11T11:01:26.521Z,19.90
2023-05-11T11:04:05.301Z,19.80
2023-05-11T11:06:34.964Z,19.80
2023-05-11T11:09:05.365Z,19.70
2023-05-11T11:11:41.618Z,19.30
2023-05-11T11:14:10.453Z,19.10
2023-05-11T11:16:40.023Z,19.10
2023-05-11T11:19:28.815Z,19.10
2023-05-11T11:21:56.832Z,19.20
2023-05-11T11:24:38.936Z,19.10
2023-05-11T11:27:06.810Z,19.20
2023-05-11T11:29:38.397Z,19.40
2023-05-11T11:32:26.576Z,19.60
2023-05-11T11:34:53.728Z,19.70
2023-05-11T11:37:22.349Z,19.90
2023-05-11T11:39:50.785Z,19.90
2023-05-11T11:42:39.677Z,19.90
2023-05-11T11:45:25.364Z,19.90
2023-05-11T11:48:15.275Z,19.90
2023-05-11T11:50:47.946Z,19.80
2023-05-11T11:53:37.973Z,19.90
2023-05-11T11:56:07.617Z,19.90
2023-05-11T11:58:44.532Z,19.80
2023-05-11T12:01:16.273Z,19.90
2023-05-11T12:03:45.253Z,19.90
2023-05-11T12:06:12.876Z,19.90
2023-05-11T12:08:41.307Z,19.90
2023-05-11T12:11:08.516Z,19.80
2023-05-11T12:13:36.070Z,19.90
2023-05-11T12:16:16.932Z,20.00
2023-05-11T12:18:54.278Z,20.10
2023-05-11T12:21:22.495Z,20.10
2023-05-11T12:24:05.464Z,19.90
2023-05-11T12:26:34.481Z,19.80
2023-05-11T12:29:13.251Z,19.80
2023-05-11T12:31:45.699Z,19.90
2023-05-11T12:34:20.687Z,19.90
2023-05-11T12:36:49.450Z,20.00
2023-05-11T12:39:26.613Z,20.00
2023-05-11T12:41:56.154Z,20.00
2023-05-11T12:44:25.527Z,20.00
2023-05-11T12:46:52.991Z,20.00
2023-05-11T12:49:29.427Z,20.10
2023-05-11T12:51:59.091Z,20.20
2023-05-11T12:54:40.560Z,20.10
2023-05-11T12:57:09.278Z,20.00
2023-05-11T12:59:40.013Z,19.70
2023-05-11T13:02:12.229Z,19.50
2023-05-11T13:04:41.705Z,19.50
2023-05-11T13:07:09.646Z,19.40
2023-05-11T13:09:36.944Z,19.40
2023-05-11T13:12:19.448Z,19.40
2023-05-11T13:14:51.160Z,19.30
2023-05-11T13:17:31.592Z,19.40
2023-05-11T13:20:22.202Z,19.50
2023-05-11T13:22:50.181Z,19.60
2023-05-11T13:25:21.033Z,19.70
2023-05-11T13:27:48.239Z,20.50
2023-05-11T13:30:15.308Z,19.90
2023-05-11T13:32:42.288Z,19.90
2023-05-11T13:35:09.615Z,19.80
2023-05-11T13:37:36.660Z,19.80
2023-05-11T13:40:04.922Z,19.90
2023-05-11T13:42:32.516Z,19.90
2023-05-11T13:44:59.447Z,19.70
2023-05-11T13:47:26.581Z,19.60
2023-05-11T13:49:55.109Z,19.50
2023-05-11T13:52:22.519Z,19.50
2023-05-11T13:54:49.596Z,19.50
2023-05-11T13:57:16.573Z,19.60
2023-05-11T13:59:43.593Z,19.60
2023-05-11T14:02:11.613Z,19.50
2023-05-11T14:04:40.107Z,19.50
2023-05-11T14:07:07.307Z,19.50
2023-05-11T14:09:34.452Z,19.50
2023-05-11T14:12:01.573Z,19.60
2023-05-11T14:14:28.540Z,19.60
2023-05-11T14:16:56.313Z,19.70
2023-05-11T14:19:23.220Z,19.70
2023-05-11T14:21:50.182Z,19.70
2023-05-11T14:24:17.037Z,19.70
2023-05-11T14:26:43.981Z,19.60
2023-05-11T14:29:11.180Z,19.50
2023-05-11T14:31:38.698Z,19.50
2023-05-11T14:34:05.929Z,19.50
2023-05-11T14:36:32.883Z,19.50
2023-05-11T14:38:59.921Z,19.50
2023-05-11T14:41:26.833Z,19.50
2023-05-11T14:43:53.648Z,19.60
2023-05-11T14:46:21.676Z,19.70
2023-05-11T14:48:48.556Z,19.80
2023-05-11T14:51:15.474Z,19.80
2023-05-11T14:53:42.358Z,19.70
2023-05-11T14:56:09.560Z,19.80
2023-05-11T14:58:36.491Z,19.90
2023-05-11T15:01:04.985Z,19.90
2023-05-11T15:03:31.931Z,19.90
2023-05-11T15:05:59.802Z,19.70
2023-05-11T15:08:30.300Z,19.60
2023-05-11T15:10:57.822Z,19.40
2023-05-11T15:13:24.906Z,19.20
2023-05-11T15:15:52.346Z,19.00
2023-05-11T15:18:19.532Z,18.90
2023-05-11T15:20:46.910Z,19.00
2023-05-11T15:23:17.113Z,19.00
2023-05-11T15:25:46.868Z,19.10
2023-05-11T15:28:14.139Z,19.10
2023-05-11T15:30:42.416Z,19.00
2023-05-11T15:33:10.512Z,18.90
2023-05-11T15:35:38.005Z,18.80
2023-05-11T15:38:05.566Z,18.80
2023-05-11T15:40:33.057Z,18.90
2023-05-11T15:43:00.686Z,18.80
2023-05-11T15:45:27.862Z,18.80
2023-05-11T15:47:55.020Z,18.70
2023-05-11T15:50:22.590Z,18.70
2023-05-11T15:52:49.675Z,18.70
2023-05-11T15:55:16.600Z,18.60
2023-05-11T15:57:43.470Z,18.60
2023-05-11T16:00:11.570Z,18.60
2023-05-11T16:02:38.805Z,18.50
2023-05-11T16:05:06.400Z,18.40
2023-05-11T16:07:33.700Z,18.30
2023-05-11T16:10:01.028Z,18.30
2023-05-11T16:12:27.918Z,18.20
2023-05-11T16:14:54.803Z,18.20
2023-05-11T16:17:21.701Z,18.20
2023-05-11T16:19:48.747Z,18.30
2023-05-11T16:22:16.150Z,18.40
2023-05-11T16:24:43.096Z,18.30
2023-05-11T16:27:10.089Z,18.30
2023-05-11T16:29:37.102Z,18.20
2023-05-11T16:32:04.201Z,18.20
2023-05-11T16:34:32.737Z,18.20
2023-05-11T16:36:59.616Z,18.20
2023-05-11T16:39:27.365Z,18.30
2023-05-11T16:41:54.315Z,18.30
2023-05-11T16:44:21.223Z,18.30
2023-05-11T16:46:49.215Z,18.20
2023-05-11T16:49:16.443Z,18.20
2023-05-11T16:51:43.533Z,18.20
2023-05-11T16:54:10.851Z,18.20
2023-05-11T16:56:37.905Z,18.10
2023-05-11T16:59:04.855Z,18.10
2023-05-11T17:01:32.468Z,18.10
2023-05-11T17:03:59.435Z,18.00
2023-05-11T17:06:27.585Z,17.90
2023-05-11T17:08:55.033Z,17.80
2023-05-11T17:11:22.072Z,17.70
2023-05-11T17:13:48.928Z,17.60
2023-05-11T17:16:16.024Z,17.50
2023-05-11T17:18:43.103Z,17.50
2023-05-11T17:21:10.540Z,17.50
2023-05-11T17:23:37.572Z,17.40
2023-05-11T17:26:11.958Z,17.20
2023-05-11T17:28:39.503Z,17.20
2023-05-11T17:31:13.919Z,17.10
2023-05-11T17:33:41.679Z,17.10
2023-05-11T17:36:09.744Z,17.00
2023-05-11T17:38:36.999Z,17.00
2023-05-11T17:41:07.733Z,16.90
2023-05-11T17:43:36.489Z,16.80
2023-05-11T17:46:04.432Z,16.80
2023-05-11T17:48:32.246Z,16.70
2023-05-11T17:50:59.423Z,16.70
2023-05-11T17:53:27.344Z,16.60
2023-05-11T17:55:54.490Z,16.50
2023-05-11T17:58:21.518Z,16.50
2023-05-11T18:00:49.510Z,16.40
2023-05-11T18:03:17.154Z,16.30
2023-05-11T18:08:14.310Z,16.20
2023-05-11T18:10:41.242Z,16.10
2023-05-11T18:13:08.943Z,16.00
2023-05-11T18:15:35.904Z,16.00
2023-05-11T18:18:03.485Z,15.90
2023-05-11T18:20:30.899Z,15.90
2023-05-11T18:22:58.202Z,15.90
2023-05-11T18:25:25.219Z,15.90
2023-05-11T18:27:52.277Z,15.80
2023-05-11T18:30:19.508Z,15.80
2023-05-11T18:32:46.725Z,15.70
2023-05-11T18:35:14.287Z,15.60
2023-05-11T18:37:41.131Z,15.50
2023-05-11T18:40:08.935Z,15.60
2023-05-11T18:42:35.887Z,15.50
2023-05-11T18:45:04.700Z,15.40
2023-05-11T18:47:34.987Z,15.30
2023-05-11T18:50:02.972Z,15.20
2023-05-11T18:52:30.380Z,15.20
2023-05-11T18:54:58.302Z,15.10
2023-05-11T18:57:25.223Z,15.00
2023-05-11T18:59:52.535Z,14.90
2023-05-11T19:02:19.482Z,14.90
2023-05-11T19:04:46.503Z,14.80
2023-05-11T19:07:13.828Z,14.80
2023-05-11T19:09:40.712Z,14.70
2023-05-11T19:12:08.114Z,14.70
2023-05-11T19:14:35.194Z,14.60
2023-05-11T19:17:04.028Z,14.50
2023-05-11T19:19:31.247Z,14.40
2023-05-11T19:21:59.367Z,14.30
2023-05-11T19:24:26.586Z,14.20
2023-05-11T19:27:06.000Z,14.20
2023-05-11T19:29:35.049Z,14.20
2023-05-11T19:32:02.218Z,14.20
2023-05-11T19:34:29.413Z,14.10
2023-05-11T19:36:56.372Z,14.10
2023-05-11T19:39:23.279Z,14.10
2023-05-11T19:41:50.303Z,14.00
2023-05-11T19:44:17.227Z,14.00
2023-05-11T19:46:47.281Z,14.00
2023-05-11T19:49:15.440Z,14.00
2023-05-11T19:51:42.833Z,14.00
2023-05-11T19:54:10.877Z,14.00
2023-05-11T19:56:38.210Z,13.90
2023-05-11T19:59:05.104Z,13.90
2023-05-11T20:01:32.107Z,13.80
2023-05-11T20:03:59.438Z,13.70
2023-05-11T20:06:26.808Z,13.60
2023-05-11T20:08:54.293Z,13.60
2023-05-11T20:11:22.231Z,13.70
2023-05-11T20:13:49.485Z,13.60
2023-05-11T20:16:16.711Z,13.70
2023-05-11T20:18:43.668Z,13.70
2023-05-11T20:21:10.774Z,13.70
2023-05-11T20:23:39.374Z,13.70
2023-05-11T20:26:06.987Z,13.70
2023-05-11T20:28:33.915Z,13.70
2023-05-11T20:31:00.839Z,13.70
2023-05-11T20:35:58.448Z,13.80
2023-05-11T20:38:25.546Z,13.80
2023-05-11T20:40:58.461Z,13.70
2023-05-11T20:43:28.021Z,13.70
2023-05-11T20:45:55.247Z,13.70
2023-05-11T20:48:32.361Z,13.70
2023-05-11T20:51:05.877Z,13.70
2023-05-11T20:53:32.882Z,13.70
2023-05-11T20:56:01.145Z,13.60
2023-05-11T20:58:29.765Z,13.60
2023-05-11T21:00:56.860Z,13.60
2023-05-11T21:03:27.669Z,13.60
2023-05-11T21:05:54.656Z,13.60
2023-05-11T21:08:21.750Z,13.60
2023-05-11T21:10:48.638Z,13.60
2023-05-11T21:13:15.819Z,13.50
2023-05-11T21:15:42.928Z,13.50
2023-05-11T21:18:10.045Z,13.40
2023-05-11T21:20:36.981Z,13.40
2023-05-11T21:23:04.086Z,13.40
2023-05-11T21:25:31.013Z,13.40
2023-05-11T21:27:57.888Z,13.40
2023-05-11T21:30:24.743Z,13.30
2023-05-11T21:32:51.660Z,13.30
2023-05-11T21:35:18.863Z,13.30
2023-05-11T21:37:49.544Z,13.30
2023-05-11T21:40:18.035Z,13.30
2023-05-11T21:42:45.309Z,13.20
2023-05-11T21:45:12.431Z,13.20
2023-05-11T21:47:39.855Z,13.20
2023-05-11T21:50:08.724Z,13.20
2023-05-11T21:52:36.877Z,13.10
2023-05-11T21:55:04.350Z,13.10
2023-05-11T21:57:31.292Z,13.00
2023-05-11T21:59:58.206Z,13.00
2023-05-11T22:02:25.249Z,13.00
2023-05-11T22:04:52.176Z,13.00
2023-05-11T22:07:20.164Z,13.00
2023-05-11T22:09:47.167Z,12.90
2023-05-11T22:12:14.070Z,12.90
2023-05-11T22:14:41.412Z,12.90
2023-05-11T22:17:08.580Z,12.90
2023-05-11T22:19:35.710Z,12.90
2023-05-11T22:22:02.653Z,12.80
2023-05-11T22:24:29.733Z,12.80
2023-05-11T22:26:56.822Z,12.80
2023-05-11T22:29:23.818Z,12.70
2023-05-11T22:31:50.736Z,12.70
2023-05-11T22:34:21.389Z,12.60
2023-05-11T22:36:48.311Z,12.50
2023-05-11T22:39:15.452Z,12.40
2023-05-11T22:41:42.361Z,12.30
2023-05-11T22:44:09.497Z,12.30
2023-05-11T22:46:36.606Z,12.20
2023-05-11T22:49:03.500Z,12.20
2023-05-11T22:51:30.454Z,12.10
2023-05-11T22:53:57.322Z,12.10
2023-05-11T22:56:24.336Z,12.10
2023-05-11T22:58:52.685Z,12.00
2023-05-11T23:01:20.484Z,12.00
2023-05-11T23:03:47.608Z,12.00
2023-05-11T23:06:14.607Z,12.00
2023-05-11T23:08:41.588Z,11.90
2023-05-11T23:11:08.714Z,11.90
2023-05-11T23:13:35.757Z,11.80
2023-05-11T23:16:06.196Z,11.80
2023-05-11T23:18:33.439Z,11.70
2023-05-11T23:21:00.789Z,11.70
2023-05-11T23:23:27.995Z,11.60
2023-05-11T23:25:54.902Z,11.60
2023-05-11T23:28:21.784Z,11.50
2023-05-11T23:30:48.868Z,11.50
2023-05-11T23:33:15.792Z,11.40
2023-05-11T23:35:42.920Z,11.40
2023-05-11T23:38:09.953Z,11.40
2023-05-11T23:40:36.853Z,11.30
2023-05-11T23:43:03.755Z,11.30
2023-05-11T23:45:30.907Z,11.30
2023-05-11T23:47:57.900Z,11.30
2023-05-11T23:50:24.790Z,11.20
2023-05-11T23:52:51.614Z,11.20
2023-05-11T23:55:18.704Z,11.20
2023-05-11T23:57:45.824Z,11.10
